Keesler Air Force Base Biloxi US
ICAO: KBIX
IATA: BIX
Category: Medium
Scheduled Services: No

Elevation: 33 ft
TransAlt. 18000 ft.

Airport Communications:
GULFPORT APP/DEP:124.6
ATIS:25.6
CLNC DEL:121.8
GND:121.8
AEROMEDICAL EVAC:23.66
PMSV METRO:34.46
403 WG AFRC COMD:25.28
PTD:37.22
TWR:120.75

KBIX Zoom In..

If you have problems with the map follow the link
https://www.worldairports.se/pages/airport.php?
ICAO=KBIX

Runways:

(A) RW 03 length 7630 ft width 150 ft
---- / hdg 34

(B) RW 21 length 7630 ft width 150 ft
ILS 109.70 / hdg 214

Location; KBIX
Day. 22 / Time. 11.56 Zulu
* Altimeter: 30.17
* Temperature: 10° c. 50°f.
* Wind from: 030° Speed 07 kn.
Dewpoint: 06° c.
Visibility: 10 Statute Miles.
Clouds: Clear (automated report).

KBIX 221156Z AUTO 03007KT 10SM CLR 10/06 A3017 RMK AO2 SLP220 T00960058 10109 20096 52006 $


Wind From 030°
Speed 07 kn.

 
 
jpsmedia.com for Web Design worldairports.se 2018   terms of use